sensor_id;sensor_type;location;lat;lon;timestamp;P1;durP1;ratioP1;P2;durP2;ratioP2
75739;SDS011;64357;51.344;6.550;2023-04-05T00:00:44;9.57;;;2.60;;
75739;SDS011;64357;51.344;6.550;2023-04-05T00:03:13;8.00;;;2.20;;
75739;SDS011;64357;51.344;6.550;2023-04-05T00:05:42;11.63;;;3.00;;
75739;SDS011;64357;51.344;6.550;2023-04-05T00:08:16;8.63;;;2.83;;
75739;SDS011;64357;51.344;6.550;2023-04-05T00:10:55;12.00;;;2.90;;
75739;SDS011;64357;51.344;6.550;2023-04-05T00:13:21;8.60;;;2.67;;
75739;SDS011;64357;51.344;6.550;2023-04-05T00:15:47;10.07;;;2.92;;
75739;SDS011;64357;51.344;6.550;2023-04-05T00:18:14;11.73;;;3.63;;
75739;SDS011;64357;51.344;6.550;2023-04-05T00:20:49;9.63;;;2.70;;
75739;SDS011;64357;51.344;6.550;2023-04-05T00:23:15;8.77;;;2.30;;
75739;SDS011;64357;51.344;6.550;2023-04-05T00:25:50;8.25;;;2.67;;
75739;SDS011;64357;51.344;6.550;2023-04-05T00:28:17;7.40;;;2.67;;
75739;SDS011;64357;51.344;6.550;2023-04-05T00:30:51;7.82;;;2.15;;
75739;SDS011;64357;51.344;6.550;2023-04-05T00:33:26;6.03;;;2.35;;
75739;SDS011;64357;51.344;6.550;2023-04-05T00:36:17;7.25;;;2.38;;
75739;SDS011;64357;51.344;6.550;2023-04-05T00:38:47;8.95;;;2.45;;
75739;SDS011;64357;51.344;6.550;2023-04-05T00:41:13;7.10;;;2.20;;
75739;SDS011;64357;51.344;6.550;2023-04-05T00:43:40;7.32;;;2.50;;
75739;SDS011;64357;51.344;6.550;2023-04-05T00:46:05;8.25;;;2.70;;
75739;SDS011;64357;51.344;6.550;2023-04-05T00:48:32;7.82;;;2.53;;
75739;SDS011;64357;51.344;6.550;2023-04-05T00:50:59;9.27;;;2.38;;
75739;SDS011;64357;51.344;6.550;2023-04-05T00:53:28;8.88;;;2.40;;
75739;SDS011;64357;51.344;6.550;2023-04-05T00:56:01;8.77;;;2.35;;
75739;SDS011;64357;51.344;6.550;2023-04-05T00:58:38;8.25;;;2.80;;
75739;SDS011;64357;51.344;6.550;2023-04-05T01:01:29;7.47;;;2.17;;
75739;SDS011;64357;51.344;6.550;2023-04-05T01:09:54;9.40;;;2.83;;
75739;SDS011;64357;51.344;6.550;2023-04-05T01:12:31;10.07;;;2.60;;
75739;SDS011;64357;51.344;6.550;2023-04-05T01:15:01;7.05;;;2.35;;
75739;SDS011;64357;51.344;6.550;2023-04-05T01:17:35;10.80;;;2.42;;
75739;SDS011;64357;51.344;6.550;2023-04-05T01:20:04;7.13;;;2.08;;
75739;SDS011;64357;51.344;6.550;2023-04-05T01:25:08;6.60;;;1.73;;
75739;SDS011;64357;51.344;6.550;2023-04-05T01:30:31;7.25;;;2.40;;
75739;SDS011;64357;51.344;6.550;2023-04-05T01:33:17;6.43;;;1.95;;
75739;SDS011;64357;51.344;6.550;2023-04-05T01:38:21;8.52;;;2.35;;
75739;SDS011;64357;51.344;6.550;2023-04-05T01:40:52;7.10;;;2.28;;
75739;SDS011;64357;51.344;6.550;2023-04-05T01:43:22;8.57;;;2.50;;
75739;SDS011;64357;51.344;6.550;2023-04-05T01:45:52;9.35;;;2.53;;
75739;SDS011;64357;51.344;6.550;2023-04-05T01:48:22;6.97;;;2.28;;
75739;SDS011;64357;51.344;6.550;2023-04-05T01:50:48;6.78;;;2.10;;
75739;SDS011;64357;51.344;6.550;2023-04-05T01:53:16;6.60;;;2.10;;
75739;SDS011;64357;51.344;6.550;2023-04-05T01:55:43;6.40;;;2.08;;
75739;SDS011;64357;51.344;6.550;2023-04-05T01:58:10;9.93;;;2.88;;
75739;SDS011;64357;51.344;6.550;2023-04-05T02:00:36;8.98;;;2.40;;
75739;SDS011;64357;51.344;6.550;2023-04-05T02:03:08;9.80;;;2.35;;
75739;SDS011;64357;51.344;6.550;2023-04-05T02:05:43;9.75;;;2.38;;
75739;SDS011;64357;51.344;6.550;2023-04-05T02:08:09;7.22;;;2.30;;
75739;SDS011;64357;51.344;6.550;2023-04-05T02:10:39;11.43;;;3.85;;
75739;SDS011;64357;51.344;6.550;2023-04-05T02:13:05;9.23;;;2.63;;
75739;SDS011;64357;51.344;6.550;2023-04-05T02:15:33;8.77;;;2.85;;
75739;SDS011;64357;51.344;6.550;2023-04-05T02:18:01;9.73;;;2.78;;
75739;SDS011;64357;51.344;6.550;2023-04-05T02:20:27;11.30;;;2.78;;
75739;SDS011;64357;51.344;6.550;2023-04-05T02:22:53;7.82;;;2.70;;
75739;SDS011;64357;51.344;6.550;2023-04-05T02:25:23;10.40;;;2.50;;
75739;SDS011;64357;51.344;6.550;2023-04-05T02:27:50;11.30;;;2.90;;
75739;SDS011;64357;51.344;6.550;2023-04-05T02:30:18;9.52;;;2.80;;
75739;SDS011;64357;51.344;6.550;2023-04-05T02:32:47;10.85;;;2.97;;
75739;SDS011;64357;51.344;6.550;2023-04-05T02:35:12;10.85;;;2.92;;
75739;SDS011;64357;51.344;6.550;2023-04-05T02:37:37;10.63;;;2.42;;
75739;SDS011;64357;51.344;6.550;2023-04-05T02:40:06;9.65;;;2.95;;
75739;SDS011;64357;51.344;6.550;2023-04-05T02:42:37;8.02;;;2.63;;
75739;SDS011;64357;51.344;6.550;2023-04-05T02:45:02;7.63;;;2.60;;
75739;SDS011;64357;51.344;6.550;2023-04-05T02:47:28;7.55;;;2.70;;
75739;SDS011;64357;51.344;6.550;2023-04-05T02:49:59;11.18;;;2.78;;
75739;SDS011;64357;51.344;6.550;2023-04-05T02:52:27;10.05;;;3.00;;
75739;SDS011;64357;51.344;6.550;2023-04-05T02:54:54;6.93;;;2.33;;
75739;SDS011;64357;51.344;6.550;2023-04-05T02:57:20;6.40;;;2.20;;
75739;SDS011;64357;51.344;6.550;2023-04-05T02:59:48;8.40;;;2.50;;
75739;SDS011;64357;51.344;6.550;2023-04-05T03:02:15;10.70;;;2.90;;
75739;SDS011;64357;51.344;6.550;2023-04-05T03:04:40;7.07;;;2.70;;
75739;SDS011;64357;51.344;6.550;2023-04-05T03:07:08;6.80;;;2.35;;
75739;SDS011;64357;51.344;6.550;2023-04-05T03:09:34;8.23;;;2.40;;
75739;SDS011;64357;51.344;6.550;2023-04-05T03:12:04;7.80;;;2.30;;
75739;SDS011;64357;51.344;6.550;2023-04-05T03:14:30;7.97;;;2.85;;
75739;SDS011;64357;51.344;6.550;2023-04-05T03:16:56;9.88;;;2.45;;
75739;SDS011;64357;51.344;6.550;2023-04-05T03:19:22;14.38;;;2.85;;
75739;SDS011;64357;51.344;6.550;2023-04-05T03:21:48;6.63;;;2.42;;
75739;SDS011;64357;51.344;6.550;2023-04-05T03:24:14;7.68;;;2.38;;
75739;SDS011;64357;51.344;6.550;2023-04-05T03:26:42;8.38;;;2.35;;
75739;SDS011;64357;51.344;6.550;2023-04-05T03:29:10;7.70;;;2.60;;
75739;SDS011;64357;51.344;6.550;2023-04-05T03:31:35;9.88;;;2.75;;
75739;SDS011;64357;51.344;6.550;2023-04-05T03:34:00;9.93;;;2.67;;
75739;SDS011;64357;51.344;6.550;2023-04-05T03:36:26;8.70;;;2.50;;
75739;SDS011;64357;51.344;6.550;2023-04-05T03:39:12;10.05;;;3.38;;
75739;SDS011;64357;51.344;6.550;2023-04-05T03:41:40;5.85;;;2.20;;
75739;SDS011;64357;51.344;6.550;2023-04-05T03:44:08;7.63;;;2.67;;
75739;SDS011;64357;51.344;6.550;2023-04-05T03:46:33;11.00;;;2.60;;
75739;SDS011;64357;51.344;6.550;2023-04-05T03:48:59;7.15;;;2.25;;
75739;SDS011;64357;51.344;6.550;2023-04-05T03:51:26;10.70;;;2.55;;
75739;SDS011;64357;51.344;6.550;2023-04-05T03:53:53;10.60;;;2.60;;
75739;SDS011;64357;51.344;6.550;2023-04-05T03:56:19;8.60;;;2.65;;
75739;SDS011;64357;51.344;6.550;2023-04-05T03:58:49;7.38;;;2.53;;
75739;SDS011;64357;51.344;6.550;2023-04-05T04:01:19;9.73;;;2.90;;
75739;SDS011;64357;51.344;6.550;2023-04-05T04:03:44;9.73;;;3.05;;
75739;SDS011;64357;51.344;6.550;2023-04-05T04:06:13;9.05;;;2.80;;
75739;SDS011;64357;51.344;6.550;2023-04-05T04:08:42;10.20;;;3.05;;
75739;SDS011;64357;51.344;6.550;2023-04-05T04:11:07;8.90;;;2.67;;
75739;SDS011;64357;51.344;6.550;2023-04-05T04:13:33;11.57;;;3.23;;
75739;SDS011;64357;51.344;6.550;2023-04-05T04:15:58;10.33;;;3.10;;
75739;SDS011;64357;51.344;6.550;2023-04-05T04:18:26;10.70;;;2.93;;
75739;SDS011;64357;51.344;6.550;2023-04-05T04:20:51;8.77;;;2.60;;
75739;SDS011;64357;51.344;6.550;2023-04-05T04:23:17;11.23;;;3.47;;
75739;SDS011;64357;51.344;6.550;2023-04-05T04:25:45;7.60;;;2.58;;
75739;SDS011;64357;51.344;6.550;2023-04-05T04:28:14;8.68;;;2.92;;
75739;SDS011;64357;51.344;6.550;2023-04-05T04:30:43;10.80;;;3.00;;
75739;SDS011;64357;51.344;6.550;2023-04-05T04:33:10;8.80;;;3.28;;
75739;SDS011;64357;51.344;6.550;2023-04-05T04:35:36;9.77;;;2.70;;
75739;SDS011;64357;51.344;6.550;2023-04-05T04:38:05;10.93;;;3.28;;
75739;SDS011;64357;51.344;6.550;2023-04-05T04:40:34;10.63;;;3.38;;
75739;SDS011;64357;51.344;6.550;2023-04-05T04:43:03;10.20;;;2.92;;
75739;SDS011;64357;51.344;6.550;2023-04-05T04:45:41;8.80;;;2.67;;
75739;SDS011;64357;51.344;6.550;2023-04-05T04:48:15;9.13;;;3.13;;
75739;SDS011;64357;51.344;6.550;2023-04-05T04:50:41;10.20;;;3.63;;
75739;SDS011;64357;51.344;6.550;2023-04-05T04:53:08;11.00;;;3.08;;
75739;SDS011;64357;51.344;6.550;2023-04-05T04:55:33;9.60;;;3.38;;
75739;SDS011;64357;51.344;6.550;2023-04-05T04:58:00;9.52;;;2.85;;
75739;SDS011;64357;51.344;6.550;2023-04-05T05:00:26;11.60;;;3.45;;
75739;SDS011;64357;51.344;6.550;2023-04-05T05:02:56;9.20;;;2.85;;
75739;SDS011;64357;51.344;6.550;2023-04-05T05:05:21;10.05;;;2.95;;
75739;SDS011;64357;51.344;6.550;2023-04-05T05:07:50;13.20;;;3.03;;
75739;SDS011;64357;51.344;6.550;2023-04-05T05:10:18;12.80;;;3.30;;
75739;SDS011;64357;51.344;6.550;2023-04-05T05:12:46;7.22;;;2.97;;
75739;SDS011;64357;51.344;6.550;2023-04-05T05:15:12;9.27;;;3.17;;
75739;SDS011;64357;51.344;6.550;2023-04-05T05:17:40;10.60;;;3.53;;
75739;SDS011;64357;51.344;6.550;2023-04-05T05:20:09;12.35;;;3.80;;
75739;SDS011;64357;51.344;6.550;2023-04-05T05:22:37;9.90;;;2.78;;
75739;SDS011;64357;51.344;6.550;2023-04-05T05:25:04;8.60;;;3.13;;
75739;SDS011;64357;51.344;6.550;2023-04-05T05:27:30;12.93;;;3.40;;
75739;SDS011;64357;51.344;6.550;2023-04-05T05:30:00;8.75;;;2.92;;
75739;SDS011;64357;51.344;6.550;2023-04-05T05:32:26;10.32;;;3.13;;
75739;SDS011;64357;51.344;6.550;2023-04-05T05:34:51;9.57;;;3.60;;
75739;SDS011;64357;51.344;6.550;2023-04-05T05:37:20;9.80;;;3.63;;
75739;SDS011;64357;51.344;6.550;2023-04-05T05:39:55;9.55;;;2.90;;
75739;SDS011;64357;51.344;6.550;2023-04-05T05:42:23;11.23;;;3.80;;
75739;SDS011;64357;51.344;6.550;2023-04-05T05:44:50;9.32;;;3.17;;
75739;SDS011;64357;51.344;6.550;2023-04-05T05:47:15;11.52;;;3.17;;
75739;SDS011;64357;51.344;6.550;2023-04-05T05:49:41;9.98;;;3.35;;
75739;SDS011;64357;51.344;6.550;2023-04-05T05:52:09;11.43;;;3.75;;
75739;SDS011;64357;51.344;6.550;2023-04-05T05:54:37;14.02;;;4.07;;
75739;SDS011;64357;51.344;6.550;2023-04-05T05:57:02;8.63;;;2.90;;
75739;SDS011;64357;51.344;6.550;2023-04-05T05:59:28;11.95;;;3.97;;
75739;SDS011;64357;51.344;6.550;2023-04-05T06:01:54;11.50;;;3.88;;
75739;SDS011;64357;51.344;6.550;2023-04-05T06:04:19;13.40;;;5.13;;
75739;SDS011;64357;51.344;6.550;2023-04-05T06:06:45;10.80;;;3.53;;
75739;SDS011;64357;51.344;6.550;2023-04-05T06:09:12;10.20;;;3.60;;
75739;SDS011;64357;51.344;6.550;2023-04-05T06:11:40;11.27;;;3.95;;
75739;SDS011;64357;51.344;6.550;2023-04-05T06:14:06;12.10;;;3.60;;
75739;SDS011;64357;51.344;6.550;2023-04-05T06:16:31;8.93;;;3.17;;
75739;SDS011;64357;51.344;6.550;2023-04-05T06:18:59;13.60;;;3.90;;
75739;SDS011;64357;51.344;6.550;2023-04-05T06:21:27;15.63;;;4.30;;
75739;SDS011;64357;51.344;6.550;2023-04-05T06:23:52;9.00;;;3.20;;
75739;SDS011;64357;51.344;6.550;2023-04-05T06:26:22;12.25;;;3.22;;
75739;SDS011;64357;51.344;6.550;2023-04-05T06:28:53;11.05;;;3.97;;
75739;SDS011;64357;51.344;6.550;2023-04-05T06:31:19;10.32;;;3.72;;
75739;SDS011;64357;51.344;6.550;2023-04-05T06:33:59;10.63;;;3.97;;
75739;SDS011;64357;51.344;6.550;2023-04-05T06:36:26;10.60;;;4.03;;
75739;SDS011;64357;51.344;6.550;2023-04-05T06:39:07;16.58;;;4.00;;
75739;SDS011;64357;51.344;6.550;2023-04-05T06:41:33;13.35;;;3.85;;
75739;SDS011;64357;51.344;6.550;2023-04-05T06:43:58;10.98;;;3.38;;
75739;SDS011;64357;51.344;6.550;2023-04-05T06:46:24;12.95;;;4.75;;
75739;SDS011;64357;51.344;6.550;2023-04-05T06:48:53;12.07;;;4.55;;
75739;SDS011;64357;51.344;6.550;2023-04-05T06:51:19;8.70;;;3.25;;
75739;SDS011;64357;51.344;6.550;2023-04-05T06:53:44;9.75;;;3.40;;
75739;SDS011;64357;51.344;6.550;2023-04-05T06:56:10;9.30;;;3.42;;
75739;SDS011;64357;51.344;6.550;2023-04-05T06:58:36;15.00;;;4.22;;
75739;SDS011;64357;51.344;6.550;2023-04-05T07:01:04;11.32;;;2.83;;
75739;SDS011;64357;51.344;6.550;2023-04-05T07:03:30;8.68;;;2.70;;
75739;SDS011;64357;51.344;6.550;2023-04-05T07:05:57;9.77;;;3.03;;
75739;SDS011;64357;51.344;6.550;2023-04-05T07:08:23;9.38;;;3.45;;
75739;SDS011;64357;51.344;6.550;2023-04-05T07:10:50;8.63;;;3.13;;
75739;SDS011;64357;51.344;6.550;2023-04-05T07:13:15;10.00;;;3.38;;
75739;SDS011;64357;51.344;6.550;2023-04-05T07:15:44;10.80;;;3.47;;
75739;SDS011;64357;51.344;6.550;2023-04-05T07:18:10;9.40;;;2.95;;
75739;SDS011;64357;51.344;6.550;2023-04-05T07:20:41;9.60;;;2.90;;
75739;SDS011;64357;51.344;6.550;2023-04-05T07:23:06;8.98;;;3.20;;
75739;SDS011;64357;51.344;6.550;2023-04-05T07:25:32;7.57;;;2.70;;
75739;SDS011;64357;51.344;6.550;2023-04-05T07:28:00;9.77;;;2.85;;
75739;SDS011;64357;51.344;6.550;2023-04-05T07:30:28;9.55;;;3.17;;
75739;SDS011;64357;51.344;6.550;2023-04-05T07:32:55;9.52;;;2.90;;
75739;SDS011;64357;51.344;6.550;2023-04-05T07:35:23;7.07;;;2.42;;
75739;SDS011;64357;51.344;6.550;2023-04-05T07:37:49;9.02;;;2.85;;
75739;SDS011;64357;51.344;6.550;2023-04-05T07:40:15;7.85;;;3.15;;
75739;SDS011;64357;51.344;6.550;2023-04-05T07:42:40;9.05;;;3.45;;
75739;SDS011;64357;51.344;6.550;2023-04-05T07:45:06;10.20;;;3.17;;
75739;SDS011;64357;51.344;6.550;2023-04-05T07:47:32;12.13;;;3.58;;
75739;SDS011;64357;51.344;6.550;2023-04-05T07:49:58;9.50;;;3.15;;
75739;SDS011;64357;51.344;6.550;2023-04-05T07:52:24;10.02;;;3.78;;
75739;SDS011;64357;51.344;6.550;2023-04-05T07:54:49;11.10;;;4.03;;
75739;SDS011;64357;51.344;6.550;2023-04-05T07:57:16;10.60;;;3.60;;
75739;SDS011;64357;51.344;6.550;2023-04-05T07:59:42;12.13;;;3.92;;
75739;SDS011;64357;51.344;6.550;2023-04-05T08:02:07;10.48;;;3.50;;
75739;SDS011;64357;51.344;6.550;2023-04-05T08:04:38;9.25;;;3.70;;
75739;SDS011;64357;51.344;6.550;2023-04-05T08:07:05;8.32;;;3.33;;
75739;SDS011;64357;51.344;6.550;2023-04-05T08:09:31;10.37;;;3.60;;
75739;SDS011;64357;51.344;6.550;2023-04-05T08:11:56;11.33;;;3.93;;
75739;SDS011;64357;51.344;6.550;2023-04-05T08:14:22;10.43;;;3.72;;
75739;SDS011;64357;51.344;6.550;2023-04-05T08:16:47;8.80;;;2.90;;
75739;SDS011;64357;51.344;6.550;2023-04-05T08:19:16;10.02;;;3.63;;
75739;SDS011;64357;51.344;6.550;2023-04-05T08:21:42;11.85;;;3.65;;
75739;SDS011;64357;51.344;6.550;2023-04-05T08:24:07;11.63;;;3.60;;
75739;SDS011;64357;51.344;6.550;2023-04-05T08:26:32;11.87;;;4.20;;
75739;SDS011;64357;51.344;6.550;2023-04-05T08:28:58;9.98;;;3.97;;
75739;SDS011;64357;51.344;6.550;2023-04-05T08:31:23;12.85;;;3.83;;
75739;SDS011;64357;51.344;6.550;2023-04-05T08:33:49;8.80;;;3.45;;
75739;SDS011;64357;51.344;6.550;2023-04-05T08:36:17;10.43;;;4.30;;
75739;SDS011;64357;51.344;6.550;2023-04-05T08:38:43;10.13;;;3.43;;
75739;SDS011;64357;51.344;6.550;2023-04-05T08:46:09;11.17;;;3.40;;
75739;SDS011;64357;51.344;6.550;2023-04-05T08:51:05;10.68;;;3.47;;
75739;SDS011;64357;51.344;6.550;2023-04-05T08:53:33;12.80;;;4.10;;
75739;SDS011;64357;51.344;6.550;2023-04-05T08:56:01;9.05;;;3.42;;
75739;SDS011;64357;51.344;6.550;2023-04-05T08:58:28;10.80;;;3.97;;
75739;SDS011;64357;51.344;6.550;2023-04-05T09:00:58;10.80;;;3.60;;
75739;SDS011;64357;51.344;6.550;2023-04-05T09:03:25;8.68;;;3.13;;
75739;SDS011;64357;51.344;6.550;2023-04-05T09:05:57;10.45;;;3.22;;
75739;SDS011;64357;51.344;6.550;2023-04-05T09:08:23;12.13;;;4.07;;
75739;SDS011;64357;51.344;6.550;2023-04-05T09:10:51;9.30;;;3.70;;
75739;SDS011;64357;51.344;6.550;2023-04-05T09:13:16;10.98;;;4.18;;
75739;SDS011;64357;51.344;6.550;2023-04-05T09:15:42;11.10;;;4.50;;
75739;SDS011;64357;51.344;6.550;2023-04-05T09:18:08;9.68;;;4.15;;
75739;SDS011;64357;51.344;6.550;2023-04-05T09:20:34;10.38;;;3.88;;
75739;SDS011;64357;51.344;6.550;2023-04-05T09:23:01;10.75;;;3.78;;
75739;SDS011;64357;51.344;6.550;2023-04-05T09:28:13;9.50;;;4.35;;
75739;SDS011;64357;51.344;6.550;2023-04-05T09:30:42;11.00;;;4.60;;
75739;SDS011;64357;51.344;6.550;2023-04-05T09:33:14;9.57;;;4.22;;
75739;SDS011;64357;51.344;6.550;2023-04-05T09:35:47;10.00;;;4.13;;
75739;SDS011;64357;51.344;6.550;2023-04-05T09:38:15;9.70;;;4.43;;
75739;SDS011;64357;51.344;6.550;2023-04-05T09:40:44;12.02;;;4.80;;
75739;SDS011;64357;51.344;6.550;2023-04-05T09:46:02;7.63;;;3.75;;
75739;SDS011;64357;51.344;6.550;2023-04-05T09:48:47;11.70;;;4.00;;
75739;SDS011;64357;51.344;6.550;2023-04-05T09:51:13;12.15;;;4.82;;
75739;SDS011;64357;51.344;6.550;2023-04-05T09:56:36;10.27;;;4.50;;
75739;SDS011;64357;51.344;6.550;2023-04-05T09:59:08;13.60;;;3.70;;
75739;SDS011;64357;51.344;6.550;2023-04-05T10:01:35;10.15;;;4.10;;
75739;SDS011;64357;51.344;6.550;2023-04-05T10:04:01;9.90;;;4.97;;
75739;SDS011;64357;51.344;6.550;2023-04-05T10:06:37;10.45;;;4.10;;
75739;SDS011;64357;51.344;6.550;2023-04-05T10:09:06;11.70;;;4.00;;
75739;SDS011;64357;51.344;6.550;2023-04-05T10:11:33;8.52;;;3.83;;
75739;SDS011;64357;51.344;6.550;2023-04-05T10:14:00;7.80;;;4.03;;
75739;SDS011;64357;51.344;6.550;2023-04-05T10:16:28;8.38;;;3.47;;
75739;SDS011;64357;51.344;6.550;2023-04-05T10:18:56;12.52;;;4.32;;
75739;SDS011;64357;51.344;6.550;2023-04-05T10:21:22;10.23;;;4.78;;
75739;SDS011;64357;51.344;6.550;2023-04-05T10:23:57;10.40;;;4.43;;
75739;SDS011;64357;51.344;6.550;2023-04-05T10:26:35;9.20;;;4.07;;
75739;SDS011;64357;51.344;6.550;2023-04-05T10:29:08;14.05;;;4.68;;
75739;SDS011;64357;51.344;6.550;2023-04-05T10:37:12;9.23;;;4.30;;
75739;SDS011;64357;51.344;6.550;2023-04-05T10:39:59;10.38;;;5.60;;
75739;SDS011;64357;51.344;6.550;2023-04-05T10:42:39;10.52;;;4.60;;
75739;SDS011;64357;51.344;6.550;2023-04-05T10:45:07;8.63;;;4.07;;
75739;SDS011;64357;51.344;6.550;2023-04-05T10:47:44;9.10;;;4.35;;
75739;SDS011;64357;51.344;6.550;2023-04-05T10:50:16;9.70;;;4.35;;
75739;SDS011;64357;51.344;6.550;2023-04-05T10:52:48;9.30;;;4.10;;
75739;SDS011;64357;51.344;6.550;2023-04-05T10:55:16;10.15;;;4.22;;
75739;SDS011;64357;51.344;6.550;2023-04-05T10:57:42;9.02;;;3.95;;
75739;SDS011;64357;51.344;6.550;2023-04-05T11:00:09;9.50;;;4.25;;
75739;SDS011;64357;51.344;6.550;2023-04-05T11:02:37;10.43;;;4.43;;
75739;SDS011;64357;51.344;6.550;2023-04-05T11:05:03;12.60;;;4.60;;
75739;SDS011;64357;51.344;6.550;2023-04-05T11:07:49;10.13;;;4.03;;
75739;SDS011;64357;51.344;6.550;2023-04-05T11:10:17;10.60;;;4.97;;
75739;SDS011;64357;51.344;6.550;2023-04-05T11:18:11;10.02;;;3.90;;
75739;SDS011;64357;51.344;6.550;2023-04-05T11:23:21;9.65;;;4.53;;
75739;SDS011;64357;51.344;6.550;2023-04-05T11:25:50;12.50;;;4.72;;
75739;SDS011;64357;51.344;6.550;2023-04-05T11:31:13;8.75;;;4.07;;
75739;SDS011;64357;51.344;6.550;2023-04-05T11:36:08;9.37;;;4.20;;
75739;SDS011;64357;51.344;6.550;2023-04-05T11:38:43;9.15;;;4.53;;
75739;SDS011;64357;51.344;6.550;2023-04-05T11:41:14;8.82;;;4.22;;
75739;SDS011;64357;51.344;6.550;2023-04-05T11:43:47;8.60;;;3.97;;
75739;SDS011;64357;51.344;6.550;2023-04-05T11:46:18;13.18;;;4.60;;
75739;SDS011;64357;51.344;6.550;2023-04-05T11:48:48;9.95;;;4.22;;
75739;SDS011;64357;51.344;6.550;2023-04-05T11:51:14;11.27;;;4.45;;
75739;SDS011;64357;51.344;6.550;2023-04-05T11:53:44;10.65;;;5.43;;
75739;SDS011;64357;51.344;6.550;2023-04-05T11:56:10;10.35;;;4.90;;
75739;SDS011;64357;51.344;6.550;2023-04-05T11:58:37;9.13;;;4.53;;
75739;SDS011;64357;51.344;6.550;2023-04-05T12:01:04;12.20;;;5.10;;
75739;SDS011;64357;51.344;6.550;2023-04-05T12:03:31;10.73;;;4.80;;
75739;SDS011;64357;51.344;6.550;2023-04-05T12:06:00;11.05;;;5.13;;
75739;SDS011;64357;51.344;6.550;2023-04-05T12:08:37;9.60;;;4.18;;
75739;SDS011;64357;51.344;6.550;2023-04-05T12:11:09;8.57;;;3.45;;
75739;SDS011;64357;51.344;6.550;2023-04-05T12:13:35;6.32;;;3.17;;
75739;SDS011;64357;51.344;6.550;2023-04-05T12:16:05;9.27;;;4.28;;
75739;SDS011;64357;51.344;6.550;2023-04-05T12:18:34;9.68;;;3.85;;
75739;SDS011;64357;51.344;6.550;2023-04-05T12:21:04;10.32;;;4.18;;
75739;SDS011;64357;51.344;6.550;2023-04-05T12:23:30;10.85;;;4.50;;
75739;SDS011;64357;51.344;6.550;2023-04-05T12:25:56;10.95;;;5.05;;
75739;SDS011;64357;51.344;6.550;2023-04-05T12:28:22;8.60;;;3.97;;
75739;SDS011;64357;51.344;6.550;2023-04-05T12:33:29;9.17;;;4.50;;
75739;SDS011;64357;51.344;6.550;2023-04-05T12:36:03;11.32;;;3.90;;
75739;SDS011;64357;51.344;6.550;2023-04-05T12:38:29;11.00;;;4.75;;
75739;SDS011;64357;51.344;6.550;2023-04-05T12:40:59;10.90;;;4.47;;
75739;SDS011;64357;51.344;6.550;2023-04-05T12:43:40;11.07;;;3.95;;
75739;SDS011;64357;51.344;6.550;2023-04-05T12:46:12;9.15;;;4.60;;
75739;SDS011;64357;51.344;6.550;2023-04-05T12:48:41;9.27;;;3.90;;
75739;SDS011;64357;51.344;6.550;2023-04-05T12:51:13;9.52;;;3.95;;
75739;SDS011;64357;51.344;6.550;2023-04-05T12:53:46;10.75;;;4.22;;
75739;SDS011;64357;51.344;6.550;2023-04-05T12:56:12;10.00;;;4.57;;
75739;SDS011;64357;51.344;6.550;2023-04-05T12:58:39;10.60;;;4.22;;
75739;SDS011;64357;51.344;6.550;2023-04-05T13:01:04;9.83;;;3.77;;
75739;SDS011;64357;51.344;6.550;2023-04-05T13:03:34;9.93;;;3.90;;
75739;SDS011;64357;51.344;6.550;2023-04-05T13:06:06;9.80;;;4.18;;
75739;SDS011;64357;51.344;6.550;2023-04-05T13:08:37;15.10;;;4.57;;
75739;SDS011;64357;51.344;6.550;2023-04-05T13:11:06;10.60;;;4.40;;
75739;SDS011;64357;51.344;6.550;2023-04-05T13:13:38;10.48;;;4.10;;
75739;SDS011;64357;51.344;6.550;2023-04-05T13:16:04;10.40;;;3.97;;
75739;SDS011;64357;51.344;6.550;2023-04-05T13:18:32;8.02;;;3.47;;
75739;SDS011;64357;51.344;6.550;2023-04-05T13:21:00;9.00;;;3.83;;
75739;SDS011;64357;51.344;6.550;2023-04-05T13:23:34;11.00;;;4.40;;
75739;SDS011;64357;51.344;6.550;2023-04-05T13:26:00;10.00;;;3.88;;
75739;SDS011;64357;51.344;6.550;2023-04-05T13:28:33;9.80;;;3.67;;
75739;SDS011;64357;51.344;6.550;2023-04-05T13:30:59;10.32;;;3.90;;
75739;SDS011;64357;51.344;6.550;2023-04-05T13:33:35;9.82;;;3.80;;
75739;SDS011;64357;51.344;6.550;2023-04-05T13:36:00;9.82;;;3.72;;
75739;SDS011;64357;51.344;6.550;2023-04-05T13:38:25;10.23;;;3.93;;
75739;SDS011;64357;51.344;6.550;2023-04-05T13:40:51;10.50;;;3.70;;
75739;SDS011;64357;51.344;6.550;2023-04-05T13:43:19;12.15;;;4.22;;
75739;SDS011;64357;51.344;6.550;2023-04-05T13:45:44;10.20;;;3.60;;
75739;SDS011;64357;51.344;6.550;2023-04-05T13:48:13;9.83;;;3.37;;
75739;SDS011;64357;51.344;6.550;2023-04-05T13:50:38;8.80;;;3.70;;
75739;SDS011;64357;51.344;6.550;2023-04-05T13:53:06;9.48;;;3.78;;
75739;SDS011;64357;51.344;6.550;2023-04-05T13:55:35;9.95;;;3.67;;
75739;SDS011;64357;51.344;6.550;2023-04-05T13:58:01;11.20;;;3.33;;
75739;SDS011;64357;51.344;6.550;2023-04-05T14:00:27;9.80;;;3.80;;
75739;SDS011;64357;51.344;6.550;2023-04-05T14:02:52;8.57;;;3.40;;
75739;SDS011;64357;51.344;6.550;2023-04-05T14:05:20;8.68;;;3.33;;
75739;SDS011;64357;51.344;6.550;2023-04-05T14:07:45;7.93;;;3.73;;
75739;SDS011;64357;51.344;6.550;2023-04-05T14:10:10;8.60;;;3.30;;
75739;SDS011;64357;51.344;6.550;2023-04-05T14:12:36;9.27;;;3.53;;
75739;SDS011;64357;51.344;6.550;2023-04-05T14:15:04;10.27;;;3.30;;
75739;SDS011;64357;51.344;6.550;2023-04-05T14:17:29;8.30;;;3.30;;
75739;SDS011;64357;51.344;6.550;2023-04-05T14:19:57;10.43;;;3.70;;
75739;SDS011;64357;51.344;6.550;2023-04-05T14:22:23;12.63;;;4.00;;
75739;SDS011;64357;51.344;6.550;2023-04-05T14:24:48;8.93;;;3.35;;
75739;SDS011;64357;51.344;6.550;2023-04-05T14:27:14;12.23;;;4.20;;
75739;SDS011;64357;51.344;6.550;2023-04-05T14:29:42;10.88;;;3.65;;
75739;SDS011;64357;51.344;6.550;2023-04-05T14:32:09;9.10;;;3.30;;
75739;SDS011;64357;51.344;6.550;2023-04-05T14:34:34;8.40;;;2.97;;
75739;SDS011;64357;51.344;6.550;2023-04-05T14:37:00;7.88;;;2.38;;
75739;SDS011;64357;51.344;6.550;2023-04-05T14:39:28;8.40;;;3.45;;
75739;SDS011;64357;51.344;6.550;2023-04-05T14:41:56;9.18;;;2.88;;
75739;SDS011;64357;51.344;6.550;2023-04-05T14:44:21;8.60;;;2.85;;
75739;SDS011;64357;51.344;6.550;2023-04-05T14:46:48;7.80;;;2.83;;
75739;SDS011;64357;51.344;6.550;2023-04-05T14:49:16;10.00;;;3.50;;
75739;SDS011;64357;51.344;6.550;2023-04-05T14:51:42;10.03;;;3.50;;
75739;SDS011;64357;51.344;6.550;2023-04-05T14:54:09;11.52;;;2.95;;
75739;SDS011;64357;51.344;6.550;2023-04-05T14:56:35;8.68;;;3.17;;
75739;SDS011;64357;51.344;6.550;2023-04-05T14:59:00;9.57;;;3.23;;
75739;SDS011;64357;51.344;6.550;2023-04-05T15:01:26;9.05;;;3.28;;
75739;SDS011;64357;51.344;6.550;2023-04-05T15:03:54;9.48;;;3.33;;
75739;SDS011;64357;51.344;6.550;2023-04-05T15:06:19;11.40;;;3.45;;
75739;SDS011;64357;51.344;6.550;2023-04-05T15:08:45;7.53;;;3.23;;
75739;SDS011;64357;51.344;6.550;2023-04-05T15:11:10;12.02;;;3.83;;
75739;SDS011;64357;51.344;6.550;2023-04-05T15:13:36;10.38;;;3.90;;
75739;SDS011;64357;51.344;6.550;2023-04-05T15:16:01;10.70;;;3.63;;
75739;SDS011;64357;51.344;6.550;2023-04-05T15:18:27;10.32;;;3.90;;
75739;SDS011;64357;51.344;6.550;2023-04-05T15:20:57;9.45;;;3.60;;
75739;SDS011;64357;51.344;6.550;2023-04-05T15:23:22;12.45;;;3.80;;
75739;SDS011;64357;51.344;6.550;2023-04-05T15:25:55;11.02;;;3.53;;
75739;SDS011;64357;51.344;6.550;2023-04-05T15:28:23;7.13;;;2.55;;
75739;SDS011;64357;51.344;6.550;2023-04-05T15:30:48;7.03;;;2.67;;
75739;SDS011;64357;51.344;6.550;2023-04-05T15:33:15;9.32;;;3.50;;
75739;SDS011;64357;51.344;6.550;2023-04-05T15:35:43;9.70;;;3.38;;
75739;SDS011;64357;51.344;6.550;2023-04-05T15:38:08;9.18;;;3.58;;